createdAt,value
2023-01-19T00:00:10.977Z,-8.37
2023-01-19T00:05:15.033Z,-8.64
2023-01-19T00:10:18.103Z,-9.04
2023-01-19T00:15:20.756Z,-8.75
2023-01-19T00:20:23.314Z,-9.31
2023-01-19T00:25:25.891Z,-9.29
2023-01-19T00:30:28.570Z,-8.68
2023-01-19T00:35:31.177Z,-8.49
2023-01-19T00:40:33.713Z,-8.34
2023-01-19T00:45:36.620Z,-8.60
2023-01-19T00:50:39.214Z,-8.40
2023-01-19T00:55:41.836Z,-8.42
2023-01-19T01:00:45.006Z,-8.37
2023-01-19T01:05:47.584Z,-8.49
2023-01-19T01:10:51.512Z,-8.47
2023-01-19T01:15:55.182Z,-8.54
2023-01-19T01:21:02.450Z,-8.61
2023-01-19T01:26:05.855Z,-8.81
2023-01-19T01:31:08.394Z,-8.78
2023-01-19T01:36:12.203Z,-9.09
2023-01-19T01:41:15.134Z,-8.89
2023-01-19T01:46:18.462Z,-8.99
2023-01-19T01:56:42.082Z,-8.77
2023-01-19T02:02:04.695Z,-9.11
2023-01-19T02:07:27.403Z,-8.98
2023-01-19T02:12:49.905Z,-8.97
2023-01-19T02:17:52.474Z,-8.94
2023-01-19T02:22:57.396Z,-9.51
2023-01-19T02:28:00.737Z,-9.37
2023-01-19T02:33:03.875Z,-9.35
2023-01-19T02:38:08.633Z,-9.33
2023-01-19T02:43:11.489Z,-8.78
2023-01-19T02:48:14.907Z,-8.44
2023-01-19T02:58:50.452Z,-8.52
2023-01-19T03:14:33.265Z,-8.15
2023-01-19T03:19:41.133Z,-8.11
2023-01-19T03:24:46.467Z,-8.05
2023-01-19T03:29:54.067Z,-8.05
2023-01-19T03:34:59.059Z,-7.77
2023-01-19T03:40:01.720Z,-8.02
2023-01-19T03:45:06.180Z,-7.92
2023-01-19T03:50:15.273Z,-7.97
2023-01-19T03:55:17.826Z,-8.01
2023-01-19T04:00:20.592Z,-8.07
2023-01-19T04:05:23.417Z,-7.91
2023-01-19T04:10:26.026Z,-7.86
2023-01-19T04:15:29.794Z,-7.90
2023-01-19T04:20:33.992Z,-7.88
2023-01-19T04:25:38.144Z,-7.82
2023-01-19T04:30:41.627Z,-7.98
2023-01-19T04:35:45.224Z,-7.91
2023-01-19T04:40:49.550Z,-7.94
2023-01-19T04:45:52.549Z,-7.99
2023-01-19T04:50:55.230Z,-7.95
2023-01-19T04:55:59.747Z,-7.92
2023-01-19T05:01:02.285Z,-7.86
2023-01-19T05:06:06.589Z,-8.25
2023-01-19T05:11:09.151Z,-8.48
2023-01-19T05:16:14.169Z,-8.36
2023-01-19T05:21:16.805Z,-8.33
2023-01-19T05:26:19.358Z,-8.16
2023-01-19T05:31:24.798Z,-8.10
2023-01-19T05:36:32.686Z,-8.00
2023-01-19T05:41:35.942Z,-7.93
2023-01-19T05:46:39.775Z,-7.88
2023-01-19T05:51:45.722Z,-7.71
2023-01-19T05:56:48.357Z,-7.55
2023-01-19T06:01:52.278Z,-7.51
2023-01-19T06:06:55.241Z,-7.30
2023-01-19T06:11:59.699Z,-7.05
2023-01-19T06:17:03.722Z,-6.91
2023-01-19T06:22:06.682Z,-6.56
2023-01-19T06:27:09.535Z,-6.32
2023-01-19T06:32:12.175Z,-6.32
2023-01-19T06:37:16.822Z,-6.53
2023-01-19T06:47:39.317Z,-6.43
2023-01-19T06:52:42.824Z,-6.32
2023-01-19T06:57:45.656Z,-6.40
2023-01-19T07:02:48.352Z,-6.32
2023-01-19T07:07:53.656Z,-6.04
2023-01-19T07:12:58.744Z,-5.77
2023-01-19T07:18:05.711Z,-5.41
2023-01-19T07:23:09.862Z,-5.28
2023-01-19T07:28:15.747Z,-5.26
2023-01-19T07:33:18.507Z,-5.22
2023-01-19T07:38:21.466Z,-5.22
2023-01-19T07:43:24.258Z,-4.99
2023-01-19T07:48:27.735Z,-5.05
2023-01-19T07:53:30.586Z,-4.73
2023-01-19T07:58:33.234Z,-4.51
2023-01-19T08:03:36.115Z,-4.36
2023-01-19T08:08:38.861Z,-4.22
2023-01-19T08:13:41.782Z,-4.57
2023-01-19T08:18:44.366Z,-4.24
2023-01-19T08:23:55.609Z,-4.38
2023-01-19T08:29:01.060Z,-4.34
2023-01-19T08:34:03.856Z,-3.69
2023-01-19T08:39:06.453Z,-3.44
2023-01-19T08:44:09.207Z,-3.47
2023-01-19T08:49:12.316Z,-3.13
2023-01-19T08:54:18.554Z,-2.97
2023-01-19T08:59:22.013Z,-2.70
2023-01-19T09:04:25.139Z,-2.94
2023-01-19T09:09:28.899Z,-2.58
2023-01-19T09:14:31.664Z,-2.49
2023-01-19T09:19:36.786Z,-2.22
2023-01-19T09:24:41.650Z,-1.58
2023-01-19T09:29:52.350Z,-1.45
2023-01-19T09:34:56.655Z,-0.83
2023-01-19T09:40:00.258Z,-1.28
2023-01-19T09:45:13.413Z,-0.97
2023-01-19T09:50:32.055Z,-0.80
2023-01-19T09:55:35.339Z,-0.68
2023-01-19T10:00:53.930Z,-0.13
2023-01-19T10:06:05.215Z,-0.36
2023-01-19T10:11:22.947Z,-0.55
2023-01-19T10:16:39.564Z,0.11
2023-01-19T10:22:27.665Z,0.61
2023-01-19T10:27:34.352Z,0.48
2023-01-19T10:32:39.215Z,0.94
2023-01-19T10:37:44.841Z,2.11
2023-01-19T10:42:47.579Z,1.71
2023-01-19T10:47:52.832Z,1.60
2023-01-19T10:52:58.745Z,0.90
2023-01-19T10:58:06.425Z,0.85
2023-01-19T11:08:36.534Z,1.03
2023-01-19T11:13:43.500Z,1.00
2023-01-19T11:18:47.649Z,1.20
2023-01-19T11:23:55.002Z,1.40
2023-01-19T11:29:01.341Z,2.69
2023-01-19T11:34:24.236Z,4.35
2023-01-19T11:39:32.884Z,4.11
2023-01-19T11:44:49.220Z,3.37
2023-01-19T11:50:20.060Z,2.84
2023-01-19T12:05:53.147Z,2.35
2023-01-19T12:11:00.148Z,1.89
2023-01-19T12:16:23.481Z,2.35
2023-01-19T12:21:27.349Z,2.72
2023-01-19T12:26:53.670Z,4.07
2023-01-19T12:42:46.079Z,6.76
2023-01-19T12:47:56.770Z,7.30
2023-01-19T12:53:02.820Z,6.88
2023-01-19T12:58:17.962Z,6.27
2023-01-19T13:08:56.798Z,7.24
2023-01-19T13:19:18.437Z,5.81
2023-01-19T13:24:23.282Z,4.69
2023-01-19T13:39:54.336Z,1.96
2023-01-19T13:45:01.271Z,1.27
2023-01-19T13:50:06.432Z,0.78
2023-01-19T13:55:14.456Z,0.30
2023-01-19T14:00:22.163Z,-0.05
2023-01-19T14:10:39.504Z,-0.41
2023-01-19T14:15:43.385Z,-0.64
2023-01-19T14:21:07.980Z,-0.87
2023-01-19T14:32:13.950Z,-1.23
2023-01-19T14:48:18.146Z,-1.41
2023-01-19T14:53:25.726Z,-1.74
2023-01-19T14:58:31.791Z,-1.84
2023-01-19T15:03:49.289Z,-1.89
2023-01-19T15:08:53.838Z,-1.85
2023-01-19T15:13:56.926Z,-2.31
2023-01-19T15:18:59.616Z,-2.54
2023-01-19T15:24:02.270Z,-2.54
2023-01-19T15:29:26.268Z,-2.49
2023-01-19T15:34:29.107Z,-2.60
2023-01-19T15:39:32.430Z,-3.02
2023-01-19T15:44:34.988Z,-3.01
2023-01-19T15:49:37.946Z,-3.26
2023-01-19T15:54:40.498Z,-3.40
2023-01-19T15:59:43.131Z,-3.60
2023-01-19T16:04:49.585Z,-3.62
2023-01-19T16:09:52.128Z,-3.64
2023-01-19T16:14:57.147Z,-3.75
2023-01-19T16:19:59.891Z,-3.65
2023-01-19T16:25:02.919Z,-3.80
2023-01-19T16:30:06.204Z,-3.89
2023-01-19T16:35:09.009Z,-4.17
2023-01-19T16:40:12.335Z,-4.11
2023-01-19T16:45:15.611Z,-4.09
2023-01-19T16:50:19.050Z,-4.14
2023-01-19T16:55:24.279Z,-3.92
2023-01-19T17:00:26.943Z,-3.91
2023-01-19T17:05:29.596Z,-4.05
2023-01-19T17:10:36.688Z,-4.01
2023-01-19T17:15:39.600Z,-3.71
2023-01-19T17:20:43.260Z,-4.05
2023-01-19T17:25:55.949Z,-4.30
2023-01-19T17:31:06.785Z,-4.16
2023-01-19T17:36:13.432Z,-4.40
2023-01-19T17:41:20.563Z,-4.34
2023-01-19T17:46:25.802Z,-4.66
2023-01-19T17:51:29.637Z,-4.66
2023-01-19T17:56:36.745Z,-4.39
2023-01-19T18:01:40.781Z,-4.54
2023-01-19T18:06:43.490Z,-4.37
2023-01-19T18:11:47.086Z,-4.39
2023-01-19T18:16:51.248Z,-4.41
2023-01-19T18:21:53.974Z,-4.64
2023-01-19T18:26:58.625Z,-4.78
2023-01-19T18:32:01.795Z,-4.75
2023-01-19T18:37:04.790Z,-4.79
2023-01-19T18:42:08.060Z,-4.96
2023-01-19T18:47:13.221Z,-4.92
2023-01-19T18:52:15.845Z,-5.00
2023-01-19T18:57:18.451Z,-5.19
2023-01-19T19:02:21.120Z,-5.15
2023-01-19T19:07:24.012Z,-5.15
2023-01-19T19:12:26.650Z,-5.32
2023-01-19T19:17:30.511Z,-5.27
2023-01-19T19:22:33.099Z,-5.18
2023-01-19T19:27:37.071Z,-5.45
2023-01-19T19:32:40.593Z,-5.98
2023-01-19T19:37:44.363Z,-6.17
2023-01-19T19:42:46.924Z,-6.15
2023-01-19T19:47:51.083Z,-6.07
2023-01-19T19:52:58.836Z,-6.27
2023-01-19T19:58:01.867Z,-6.22
2023-01-19T20:03:04.668Z,-5.88
2023-01-19T20:08:07.381Z,-5.84
2023-01-19T20:13:09.989Z,-5.91
2023-01-19T20:18:12.784Z,-5.84
2023-01-19T20:23:16.455Z,-6.06
2023-01-19T20:28:19.483Z,-6.02
2023-01-19T20:33:22.290Z,-6.13
2023-01-19T20:38:24.884Z,-5.98
2023-01-19T20:43:28.579Z,-5.74
2023-01-19T20:48:31.932Z,-6.27
2023-01-19T20:53:36.708Z,-6.31
2023-01-19T20:58:39.901Z,-6.37
2023-01-19T21:03:42.680Z,-6.26
2023-01-19T21:08:45.301Z,-5.92
2023-01-19T21:13:48.807Z,-5.84
2023-01-19T21:19:02.124Z,-5.79
2023-01-19T21:24:05.308Z,-5.91
2023-01-19T21:29:13.441Z,-6.23
2023-01-19T21:34:16.957Z,-6.19
2023-01-19T21:39:19.544Z,-5.84
2023-01-19T21:44:22.267Z,-5.82
2023-01-19T21:49:24.898Z,-5.99
2023-01-19T21:54:27.764Z,-5.99
2023-01-19T21:59:30.354Z,-6.11
2023-01-19T22:04:33.175Z,-6.08
2023-01-19T22:09:36.671Z,-6.02
2023-01-19T22:14:39.287Z,-6.42
2023-01-19T22:19:42.027Z,-6.29
2023-01-19T22:24:46.801Z,-6.51
2023-01-19T22:29:49.440Z,-6.25
2023-01-19T22:34:52.049Z,-6.15
2023-01-19T22:39:54.883Z,-6.60
2023-01-19T22:44:57.499Z,-6.77
2023-01-19T22:50:00.068Z,-6.34
2023-01-19T22:55:02.685Z,-6.11
2023-01-19T23:00:08.785Z,-6.14
2023-01-19T23:05:11.513Z,-6.05
2023-01-19T23:10:14.412Z,-6.13
2023-01-19T23:15:16.961Z,-6.57
2023-01-19T23:20:20.712Z,-6.51
2023-01-19T23:25:23.300Z,-6.65
2023-01-19T23:30:26.016Z,-6.52
2023-01-19T23:35:28.825Z,-6.46
2023-01-19T23:40:31.418Z,-6.28
2023-01-19T23:45:35.444Z,-6.41
2023-01-19T23:50:40.761Z,-6.67
2023-01-19T23:55:43.391Z,-6.59
